Time;durP1;ratioP1;P1;durP2;ratioP2;P2;SDS_P1;SDS_P2;PMS_P1;PMS_P2;Temp;Humidity;BMP_temperature;BMP_pressure;BME280_temperature;BME280_humidity;BME280_pressure;Samples;Min_cycle;Max_cycle;Signal;HPM_P1;HPM_P2
2023/02/26 00:02:17;;;;;;;4.88;0.10;;;0.20;99.90;;;;;;5013472;28;20041;-77
2023/02/26 00:04:42;;;;;;;2.47;0.22;;;0.30;99.90;;;;;;5015313;28;20033;-77
2023/02/26 00:07:08;;;;;;;2.03;0.30;;;0.40;99.90;;;;;;5015368;28;20508;-77
2023/02/26 00:09:34;;;;;;;1.85;0.00;;;0.50;99.90;;;;;;5015818;28;20018;-77
2023/02/26 00:12:00;;;;;;;2.03;0.10;;;0.70;99.90;;;;;;5015175;28;20508;-77
2023/02/26 00:14:26;;;;;;;4.03;0.13;;;0.90;99.90;;;;;;5015119;28;20022;-77
2023/02/26 00:17:16;;;;;;;1.50;0.00;;;1.00;99.90;;;;;;5013701;28;20437;-77
2023/02/26 00:19:42;;;;;;;4.22;0.13;;;1.10;99.90;;;;;;5015180;28;20037;-77
2023/02/26 00:22:08;;;;;;;2.72;0.22;;;1.20;99.90;;;;;;5013546;28;20033;-76
2023/02/26 00:24:34;;;;;;;2.20;0.47;;;1.30;99.90;;;;;;5013763;28;20425;-77
2023/02/26 00:26:59;;;;;;;2.63;0.30;;;1.50;99.90;;;;;;5014930;28;20018;-77
2023/02/26 00:29:25;;;;;;;3.60;0.00;;;1.50;99.90;;;;;;5015303;28;20024;-77
2023/02/26 00:31:51;;;;;;;2.38;0.00;;;1.50;99.90;;;;;;5013535;28;20475;-77
2023/02/26 00:34:17;;;;;;;2.53;0.00;;;1.70;99.90;;;;;;5013480;28;20022;-77
2023/02/26 00:36:42;;;;;;;3.92;0.08;;;1.60;99.90;;;;;;5014701;28;20480;-77
2023/02/26 00:39:24;;;;;;;0.55;0.00;;;1.60;99.90;;;;;;5013383;28;20061;-76
2023/02/26 00:41:50;;;;;;;2.85;0.00;;;1.60;99.90;;;;;;5013438;28;20026;-77
2023/02/26 00:44:16;;;;;;;0.35;0.00;;;1.60;99.90;;;;;;5013409;28;20025;-77
2023/02/26 00:46:59;;;;;;;1.50;0.28;;;1.60;99.90;;;;;;5014502;28;20048;-77
2023/02/26 00:49:45;;;;;;;2.60;0.30;;;1.50;99.90;;;;;;5014787;28;20067;-77
2023/02/26 00:52:22;;;;;;;1.38;0.03;;;1.60;99.90;;;;;;5014925;28;20034;-76
2023/02/26 00:54:48;;;;;;;1.45;0.38;;;1.60;99.90;;;;;;5014625;28;20022;-76
2023/02/26 00:57:13;;;;;;;1.15;0.00;;;1.50;99.90;;;;;;5013209;28;20037;-76
2023/02/26 00:59:39;;;;;;;0.85;0.00;;;1.50;99.90;;;;;;5013140;28;20022;-76
2023/02/26 01:02:04;;;;;;;6.07;0.10;;;1.50;99.90;;;;;;5012964;28;20176;-76
2023/02/26 01:04:30;;;;;;;5.45;0.00;;;1.50;99.90;;;;;;5014223;28;20018;-76
2023/02/26 01:06:57;;;;;;;3.30;0.20;;;1.40;99.90;;;;;;5014122;28;20029;-76
2023/02/26 01:09:32;;;;;;;0.20;0.00;;;1.40;99.90;;;;;;5012998;28;20392;-76
2023/02/26 01:12:01;;;;;;;1.65;0.00;;;1.40;99.90;;;;;;5012888;28;20392;-76
2023/02/26 01:14:27;;;;;;;;;;;1.30;99.90;;;;;;5012488;28;20088;-76
2023/02/26 01:17:12;;;;;;;5.28;0.60;;;1.30;99.90;;;;;;5012909;28;19909;-76
2023/02/26 01:19:50;;;;;;;3.33;0.00;;;1.30;99.90;;;;;;5012900;28;20169;-76
2023/02/26 01:22:39;;;;;;;2.40;0.10;;;1.30;99.90;;;;;;5013890;28;20100;-75
2023/02/26 01:25:12;;;;;;;3.60;0.00;;;1.20;99.90;;;;;;5012861;28;20268;-76
2023/02/26 01:27:38;;;;;;;3.97;0.10;;;1.20;99.90;;;;;;5012821;28;20030;-76
2023/02/26 01:30:06;;;;;;;1.08;0.03;;;1.10;99.90;;;;;;5012569;28;20033;-76
2023/02/26 01:33:06;;;;;;;3.03;0.00;;;1.00;99.90;;;;;;5013857;28;20018;-76
2023/02/26 01:35:38;;;;;;;2.72;0.38;;;1.00;99.90;;;;;;5013874;28;20029;-77
2023/02/26 01:38:13;;;;;;;1.42;0.25;;;1.00;99.90;;;;;;5013768;28;20029;-77
2023/02/26 01:41:09;;;;;;;1.55;0.00;;;1.00;99.90;;;;;;5012597;28;20022;-76
2023/02/26 01:43:50;;;;;;;5.47;0.50;;;0.90;99.90;;;;;;5013784;28;20021;-77
2023/02/26 01:46:29;;;;;;;4.00;0.00;;;0.90;99.90;;;;;;5012806;28;20028;-76
2023/02/26 01:48:57;;;;;;;1.63;0.00;;;0.90;99.90;;;;;;5012491;28;20061;-77
2023/02/26 01:51:44;;;;;;;2.50;0.00;;;0.80;99.90;;;;;;5013619;28;20440;-77
2023/02/26 01:54:11;;;;;;;3.30;0.10;;;0.80;99.90;;;;;;5012457;28;20030;-77
2023/02/26 01:56:37;;;;;;;1.90;0.00;;;0.70;99.90;;;;;;5013756;28;20388;-77
2023/02/26 01:59:07;;;;;;;4.68;0.00;;;0.70;99.90;;;;;;5013630;28;20032;-77
2023/02/26 02:01:33;;;;;;;4.57;0.00;;;0.70;99.90;;;;;;5013692;28;20029;-77
2023/02/26 02:03:59;;;;;;;3.45;0.00;;;0.60;99.90;;;;;;5012319;28;20014;-76
2023/02/26 02:06:28;;;;;;;1.58;0.00;;;0.60;99.90;;;;;;5013613;28;20022;-77
2023/02/26 02:08:54;;;;;;;3.45;0.00;;;0.60;99.90;;;;;;5013496;28;20037;-77
2023/02/26 02:11:20;;;;;;;4.22;0.10;;;0.50;99.90;;;;;;5013519;28;20048;-77
2023/02/26 02:14:16;;;;;;;1.45;0.00;;;0.50;99.90;;;;;;5012198;28;20018;-76
2023/02/26 02:17:11;;;;;;;4.72;0.00;;;0.50;99.90;;;;;;5012273;28;20377;-76
2023/02/26 02:20:09;;;;;;;2.78;0.00;;;0.40;99.90;;;;;;5012297;28;20026;-77
2023/02/26 02:22:46;;;;;;;0.80;0.00;;;0.40;99.90;;;;;;5013404;28;20153;-77
2023/02/26 02:25:30;;;;;;;1.30;0.10;;;0.40;99.90;;;;;;5013721;28;20385;-77
2023/02/26 02:28:31;;;;;;;3.60;0.20;;;0.40;99.90;;;;;;5015866;28;20030;-77
2023/02/26 02:31:05;;;;;;;9.43;0.20;;;0.30;99.90;;;;;;5015939;28;20030;-77
2023/02/26 02:33:50;;;;;;;1.00;0.00;;;0.30;99.90;;;;;;5015803;28;20560;-77
2023/02/26 02:36:30;;;;;;;3.40;0.00;;;0.30;99.90;;;;;;5016985;28;20030;-77
2023/02/26 02:39:01;;;;;;;0.95;0.00;;;0.30;99.90;;;;;;5015514;28;20018;-77
2023/02/26 02:41:33;;;;;;;3.70;0.00;;;0.30;99.90;;;;;;5015728;28;20033;-77
2023/02/26 02:44:05;;;;;;;2.03;0.25;;;0.30;99.90;;;;;;5016863;28;20018;-76
2023/02/26 02:46:34;;;;;;;2.60;0.15;;;0.30;99.90;;;;;;5015470;28;20021;-76
2023/02/26 02:49:14;;;;;;;2.80;0.00;;;0.30;99.90;;;;;;5016701;28;20053;-76
2023/02/26 02:52:04;;;;;;;2.05;0.00;;;0.20;99.90;;;;;;5016858;28;20053;-76
2023/02/26 02:54:43;;;;;;;2.08;0.43;;;0.20;99.90;;;;;;5015535;28;20022;-76
2023/02/26 02:57:24;;;;;;;0.65;0.00;;;0.20;99.90;;;;;;5015349;28;20040;-76
2023/02/26 03:00:04;;;;;;;1.10;0.10;;;0.20;99.90;;;;;;5015461;28;20052;-76
2023/02/26 03:02:50;;;;;;;2.13;0.10;;;0.20;99.90;;;;;;5015342;28;20028;-76
2023/02/26 03:05:16;;;;;;;0.10;0.00;;;0.20;99.90;;;;;;5016578;28;20109;-76
2023/02/26 03:07:56;;;;;;;0.20;0.00;;;0.10;99.90;;;;;;5015404;28;20057;-76
2023/02/26 03:10:22;;;;;;;5.35;0.65;;;0.10;99.90;;;;;;5016573;28;20034;-77
2023/02/26 03:12:47;;;;;;;2.42;0.00;;;0.10;99.90;;;;;;5015302;28;20388;-76
2023/02/26 03:15:15;;;;;;;2.55;0.00;;;0.00;99.90;;;;;;5016671;28;20029;-77
2023/02/26 03:18:22;;;;;;;4.38;0.13;;;0.00;99.90;;;;;;5016968;28;20143;-76
2023/02/26 03:21:31;;;;;;;4.07;0.03;;;0.00;99.90;;;;;;5016576;28;20025;-76
2023/02/26 03:24:16;;;;;;;5.03;0.52;;;0.00;99.90;;;;;;5015578;28;20030;-76
2023/02/26 03:26:48;;;;;;;2.28;0.00;;;0.10;99.90;;;;;;5016677;28;20073;-76
2023/02/26 03:29:31;;;;;;;1.85;0.22;;;0.00;99.90;;;;;;5016775;28;20022;-76
2023/02/26 03:32:02;;;;;;;0.80;0.00;;;0.00;99.90;;;;;;5016332;28;20033;-77
2023/02/26 03:34:44;;;;;;;1.15;0.15;;;0.00;99.90;;;;;;5015101;28;20021;-77
2023/02/26 03:37:36;;;;;;;1.60;0.00;;;0.00;99.90;;;;;;5015613;28;20048;-77
2023/02/26 03:40:08;;;;;;;1.27;0.00;;;0.00;99.90;;;;;;5015405;28;20029;-76
2023/02/26 03:43:09;;;;;;;4.78;0.00;;;-0.10;99.90;;;;;;5016403;28;20538;-76
2023/02/26 03:45:38;;;;;;;2.45;0.15;;;-0.10;99.90;;;;;;5009888;28;20099;-76
2023/02/26 03:48:05;;;;;;;;;;;-0.10;99.90;;;;;;5016976;28;20065;-75
2023/02/26 03:50:40;;;;;;;2.60;0.10;;;-0.10;99.90;;;;;;5016721;28;19956;-76
2023/02/26 03:53:10;;;;;;;2.75;0.00;;;-0.10;99.90;;;;;;5016605;28;20036;-76
2023/02/26 03:55:43;;;;;;;3.20;0.00;;;-0.10;99.90;;;;;;5015617;28;20049;-76
2023/02/26 03:58:09;;;;;;;2.67;0.00;;;-0.10;99.90;;;;;;5015420;28;20022;-76
2023/02/26 04:00:36;;;;;;;0.57;0.00;;;-0.20;99.90;;;;;;5016192;28;20081;-76
2023/02/26 04:03:34;;;;;;;0.95;0.00;;;-0.20;99.90;;;;;;5016116;28;20045;-76
2023/02/26 04:06:01;;;;;;;5.45;0.00;;;-0.20;99.90;;;;;;4981473;28;20049;-76
2023/02/26 04:08:27;;;;;;;1.48;0.03;;;-0.20;99.90;;;;;;5016782;28;20453;-76
2023/02/26 04:11:05;;;;;;;2.63;0.00;;;-0.30;99.90;;;;;;5016096;28;20037;-76
2023/02/26 04:13:30;;;;;;;6.03;0.00;;;-0.30;99.90;;;;;;5015985;28;20091;-76
2023/02/26 04:15:56;;;;;;;3.00;0.00;;;-0.40;99.90;;;;;;5015747;28;20026;-76
2023/02/26 04:18:22;;;;;;;1.65;0.00;;;-0.40;99.90;;;;;;5014729;28;20034;-76
2023/02/26 04:20:47;;;;;;;1.45;0.00;;;-0.40;99.90;;;;;;5015107;28;20022;-76
2023/02/26 04:23:14;;;;;;;0.47;0.00;;;-0.40;99.90;;;;;;5015237;28;20456;-76
2023/02/26 04:25:39;;;;;;;1.60;0.00;;;-0.40;99.90;;;;;;5015966;28;20049;-76
2023/02/26 04:28:05;;;;;;;0.70;0.00;;;-0.40;99.90;;;;;;5015033;28;20018;-75
2023/02/26 04:30:30;;;;;;;4.45;0.00;;;-0.40;99.90;;;;;;5015542;28;20045;-75
2023/02/26 04:32:56;;;;;;;5.43;0.30;;;-0.50;99.90;;;;;;5014919;28;20535;-75
2023/02/26 04:35:21;;;;;;;2.58;0.00;;;-0.50;99.90;;;;;;5015896;28;20026;-75
2023/02/26 04:37:47;;;;;;;14.70;0.60;;;-0.60;99.90;;;;;;5014664;28;20503;-75
2023/02/26 04:40:13;;;;;;;1.88;0.00;;;-0.60;99.90;;;;;;5016178;28;20074;-75
2023/02/26 04:42:38;;;;;;;0.95;0.00;;;-0.60;99.90;;;;;;5014011;28;20104;-76
2023/02/26 04:45:04;;;;;;;2.17;0.10;;;-0.60;99.90;;;;;;5014958;28;20416;-75
2023/02/26 04:47:30;;;;;;;0.93;0.00;;;-0.70;99.90;;;;;;5013740;28;20124;-76
2023/02/26 04:49:55;;;;;;;1.55;0.00;;;-0.70;99.90;;;;;;5015056;28;20460;-76
2023/02/26 04:52:21;;;;;;;0.43;0.00;;;-0.80;99.90;;;;;;5013582;28;20472;-76
2023/02/26 04:54:46;;;;;;;8.82;0.25;;;-0.80;99.90;;;;;;5013965;28;20049;-76
2023/02/26 04:57:12;;;;;;;3.10;0.00;;;-0.80;99.90;;;;;;5015408;28;20018;-76
2023/02/26 04:59:38;;;;;;;2.80;0.00;;;-0.80;99.90;;;;;;5013738;28;20028;-76
2023/02/26 05:02:04;;;;;;;3.80;0.00;;;-0.80;99.90;;;;;;5014270;28;20389;-76
2023/02/26 05:04:30;;;;;;;0.70;0.00;;;-0.90;99.90;;;;;;5015526;28;20026;-76
2023/02/26 05:06:55;;;;;;;4.25;0.98;;;-0.90;99.90;;;;;;5014001;28;20022;-76
2023/02/26 05:09:21;;;;;;;0.55;0.00;;;-1.00;99.90;;;;;;5014009;28;20022;-76
2023/02/26 05:11:47;;;;;;;1.15;0.00;;;-1.00;99.90;;;;;;5015466;28;20041;-76
2023/02/26 05:14:14;;;;;;;1.75;0.00;;;-1.00;99.90;;;;;;5015739;28;20034;-76
2023/02/26 05:16:42;;;;;;;0.85;0.10;;;-1.00;99.90;;;;;;5014293;28;20116;-76
2023/02/26 05:19:08;;;;;;;0.25;0.00;;;-1.20;99.90;;;;;;5013975;28;20033;-76
2023/02/26 05:21:33;;;;;;;1.58;0.00;;;-1.10;99.90;;;;;;5013561;28;20495;-76
2023/02/26 05:23:59;;;;;;;2.83;0.05;;;-1.10;99.90;;;;;;5015103;28;20026;-76
2023/02/26 05:26:24;;;;;;;2.78;0.10;;;-1.10;99.90;;;;;;5014200;28;20014;-76
2023/02/26 05:28:51;;;;;;;1.80;0.00;;;-1.20;99.90;;;;;;5013920;28;20022;-76
2023/02/26 05:31:17;;;;;;;1.95;0.05;;;-1.20;99.90;;;;;;5013639;28;20037;-76
2023/02/26 05:33:42;;;;;;;1.88;0.00;;;-1.20;99.90;;;;;;5014942;28;20026;-76
2023/02/26 05:36:08;;;;;;;1.23;0.00;;;-1.10;99.90;;;;;;5013522;28;20408;-76
2023/02/26 05:38:34;;;;;;;4.47;0.00;;;-1.20;99.90;;;;;;5014867;28;20064;-76
2023/02/26 05:41:00;;;;;;;6.13;0.00;;;-1.20;99.90;;;;;;5013157;28;20014;-76
2023/02/26 05:43:26;;;;;;;4.82;0.20;;;-1.20;99.90;;;;;;5013290;28;20044;-76
2023/02/26 05:45:54;;;;;;;3.30;0.00;;;-1.20;99.90;;;;;;5014105;28;20018;-75
2023/02/26 05:48:20;;;;;;;1.13;0.00;;;-1.20;99.90;;;;;;5014440;28;20392;-76
2023/02/26 05:50:47;;;;;;;1.55;0.00;;;-1.20;99.90;;;;;;5013167;28;20026;-76
2023/02/26 05:53:13;;;;;;;0.17;0.00;;;-1.20;99.90;;;;;;5013203;28;20508;-76
2023/02/26 05:55:38;;;;;;;3.97;0.03;;;-1.20;99.90;;;;;;5014989;28;20026;-76
2023/02/26 05:58:04;;;;;;;2.40;0.00;;;-1.20;99.90;;;;;;5014816;28;20473;-76
2023/02/26 06:00:29;;;;;;;1.63;0.00;;;-1.30;99.90;;;;;;5013508;28;20026;-76
2023/02/26 06:02:55;;;;;;;4.47;0.00;;;-1.30;99.90;;;;;;5016453;28;20049;-76
2023/02/26 06:05:21;;;;;;;2.35;0.00;;;-1.30;99.90;;;;;;5018142;28;20026;-76
2023/02/26 06:07:46;;;;;;;3.60;0.00;;;-1.40;99.90;;;;;;5016489;28;20022;-75
2023/02/26 06:10:12;;;;;;;2.33;0.10;;;-1.40;99.90;;;;;;5017982;28;20373;-75
2023/02/26 06:12:38;;;;;;;4.70;0.00;;;-1.50;99.90;;;;;;5016141;28;20030;-76
2023/02/26 06:15:05;;;;;;;6.63;0.10;;;-1.50;99.90;;;;;;5017436;28;20401;-76
2023/02/26 06:17:30;;;;;;;3.78;0.38;;;-1.60;99.90;;;;;;5017949;28;20113;-76
2023/02/26 06:19:56;;;;;;;0.10;0.00;;;-1.50;99.90;;;;;;5018087;28;20080;-76
2023/02/26 06:22:21;;;;;;;2.08;0.00;;;-1.50;99.90;;;;;;5018029;28;20022;-76
2023/02/26 06:24:47;;;;;;;0.95;0.00;;;-1.50;99.90;;;;;;5016523;28;20113;-75
2023/02/26 06:27:13;;;;;;;0.10;0.00;;;-1.50;99.90;;;;;;5017969;28;20021;-76
2023/02/26 06:29:38;;;;;;;3.72;0.15;;;-1.50;99.90;;;;;;5016640;28;20492;-76
2023/02/26 06:32:05;;;;;;;0.43;0.00;;;-1.60;99.90;;;;;;5017688;28;20034;-76
2023/02/26 06:34:32;;;;;;;0.93;0.00;;;-1.60;99.90;;;;;;5017723;28;20133;-76
2023/02/26 06:36:58;;;;;;;3.25;0.00;;;-1.70;99.90;;;;;;5017960;28;20396;-76
2023/02/26 06:39:23;;;;;;;0.45;0.00;;;-1.70;99.90;;;;;;5018189;28;20113;-76
2023/02/26 06:41:49;;;;;;;0.68;0.00;;;-1.70;99.90;;;;;;5016476;28;20465;-76
2023/02/26 06:44:14;;;;;;;0.43;0.00;;;-1.70;99.90;;;;;;5016345;28;20117;-76
2023/02/26 06:46:40;;;;;;;6.85;0.00;;;-1.70;99.90;;;;;;5017572;28;20045;-76
2023/02/26 06:49:06;;;;;;;1.63;0.03;;;-1.70;99.90;;;;;;5016390;28;20026;-76
2023/02/26 06:51:32;;;;;;;3.38;0.00;;;-1.70;99.90;;;;;;5017490;28;20026;-76
2023/02/26 06:53:58;;;;;;;3.17;0.00;;;-1.60;99.90;;;;;;5016293;28;20030;-76
2023/02/26 06:56:24;;;;;;;2.70;0.55;;;-1.60;99.90;;;;;;5017411;28;20109;-76
2023/02/26 06:58:49;;;;;;;0.10;0.00;;;-1.50;99.90;;;;;;5018333;28;20037;-76
2023/02/26 07:01:15;;;;;;;1.17;0.00;;;-1.50;99.90;;;;;;5017605;28;20026;-76
2023/02/26 07:03:44;;;;;;;9.75;0.25;;;-1.40;99.90;;;;;;5016539;28;20033;-76
2023/02/26 07:06:11;;;;;;;0.52;0.00;;;-1.30;99.90;;;;;;5016081;28;20022;-76
2023/02/26 07:08:37;;;;;;;0.35;0.25;;;-1.30;99.90;;;;;;5017353;28;20030;-76
2023/02/26 07:11:03;;;;;;;2.60;0.00;;;-1.10;99.90;;;;;;5017117;28;20037;-76
2023/02/26 07:13:29;;;;;;;2.10;0.10;;;-1.10;99.90;;;;;;5016487;28;20029;-75
2023/02/26 07:15:55;;;;;;;1.00;0.00;;;-1.00;99.90;;;;;;5017044;28;20049;-76
2023/02/26 07:18:20;;;;;;;1.70;0.08;;;-0.80;99.90;;;;;;5015596;28;20025;-76
2023/02/26 07:20:48;;;;;;;2.72;0.38;;;-0.60;99.90;;;;;;5016198;28;20022;-76
2023/02/26 07:23:14;;;;;;;3.30;0.00;;;-0.70;99.90;;;;;;5015205;28;20054;-76
2023/02/26 07:25:39;;;;;;;1.30;0.00;;;-0.50;99.90;;;;;;5016973;28;20488;-76
2023/02/26 07:28:05;;;;;;;4.38;0.05;;;-0.50;99.90;;;;;;5016305;28;20104;-75
2023/02/26 07:30:30;;;;;;;3.00;0.10;;;-0.30;99.90;;;;;;5014898;28;20040;-76
2023/02/26 07:32:59;;;;;;;0.00;0.00;;;-0.20;99.90;;;;;;5016235;28;20026;-76
2023/02/26 07:35:25;;;;;;;0.98;0.00;;;-0.10;99.90;;;;;;5016424;28;20026;-75
2023/02/26 07:37:51;;;;;;;0.85;0.00;;;0.00;99.90;;;;;;5016431;28;20033;-76
2023/02/26 07:40:17;;;;;;;1.50;0.00;;;0.10;99.90;;;;;;5014590;28;20055;-75
2023/02/26 07:42:43;;;;;;;1.20;0.05;;;0.20;99.90;;;;;;5014759;28;20208;-75
2023/02/26 07:45:11;;;;;;;1.85;0.00;;;0.20;99.90;;;;;;5014534;28;20018;-76
2023/02/26 07:47:37;;;;;;;1.83;0.00;;;0.30;99.90;;;;;;5014713;28;20037;-76
2023/02/26 07:50:02;;;;;;;3.50;0.03;;;0.40;99.90;;;;;;5015710;28;20015;-75
2023/02/26 07:52:28;;;;;;;1.42;0.00;;;0.50;99.90;;;;;;5014452;28;20021;-75
2023/02/26 07:54:54;;;;;;;2.90;0.00;;;0.60;99.90;;;;;;5015070;28;20043;-76
2023/02/26 07:57:20;;;;;;;4.35;0.00;;;0.70;99.90;;;;;;5015718;28;20029;-76
2023/02/26 07:59:45;;;;;;;6.55;0.00;;;0.80;99.90;;;;;;5015561;28;20030;-76
2023/02/26 08:02:12;;;;;;;0.32;0.05;;;0.90;99.90;;;;;;5015461;28;20100;-76
2023/02/26 08:04:38;;;;;;;2.50;0.00;;;1.00;99.90;;;;;;5015314;28;20028;-76
2023/02/26 08:07:03;;;;;;;0.70;0.00;;;1.10;99.90;;;;;;5015724;28;20432;-76
2023/02/26 08:09:29;;;;;;;2.38;0.00;;;1.20;99.90;;;;;;5015527;28;20030;-75
2023/02/26 08:11:55;;;;;;;1.98;0.20;;;1.20;99.90;;;;;;5015394;28;20096;-76
2023/02/26 08:14:21;;;;;;;5.28;0.30;;;1.30;99.90;;;;;;5015385;28;20114;-76
2023/02/26 08:16:47;;;;;;;0.57;0.15;;;1.40;99.90;;;;;;5015432;28;20057;-76
2023/02/26 08:19:12;;;;;;;0.30;0.00;;;1.50;99.90;;;;;;5015148;28;20022;-76
2023/02/26 08:21:38;;;;;;;3.33;0.00;;;1.60;99.90;;;;;;5015472;28;20381;-76
2023/02/26 08:24:04;;;;;;;4.60;0.00;;;1.70;99.90;;;;;;5014789;28;20026;-76
2023/02/26 08:26:29;;;;;;;2.70;0.08;;;1.80;99.90;;;;;;5015789;28;20029;-76
2023/02/26 08:28:55;;;;;;;1.98;0.00;;;1.80;99.90;;;;;;5013828;28;20117;-76
2023/02/26 08:31:20;;;;;;;0.70;0.10;;;2.00;99.90;;;;;;5015024;28;20030;-76
2023/02/26 08:33:46;;;;;;;2.70;0.00;;;2.00;99.90;;;;;;5013738;28;20014;-76
2023/02/26 08:36:13;;;;;;;1.48;0.00;;;2.10;99.90;;;;;;5015021;28;20388;-76
2023/02/26 08:38:39;;;;;;;2.92;0.05;;;2.20;99.90;;;;;;5015012;28;20049;-76
2023/02/26 08:41:04;;;;;;;1.48;0.00;;;2.20;99.90;;;;;;5013416;28;20472;-76
2023/02/26 08:43:30;;;;;;;1.50;0.00;;;2.30;99.90;;;;;;5014759;28;20033;-76
2023/02/26 08:45:56;;;;;;;0.75;0.00;;;2.30;99.90;;;;;;5014726;28;20536;-76
2023/02/26 08:48:23;;;;;;;2.10;0.00;;;2.40;99.90;;;;;;5014735;28;20030;-75
2023/02/26 08:50:49;;;;;;;1.45;0.00;;;2.50;99.90;;;;;;5013214;28;20401;-76
2023/02/26 08:53:15;;;;;;;5.32;0.00;;;2.50;99.90;;;;;;5015013;28;20025;-76
2023/02/26 08:55:40;;;;;;;1.77;0.03;;;2.50;99.90;;;;;;5013406;28;20060;-75
2023/02/26 08:58:06;;;;;;;1.38;0.32;;;2.60;99.90;;;;;;5013369;28;20025;-76
2023/02/26 09:00:32;;;;;;;1.38;0.00;;;2.70;99.90;;;;;;5015176;28;20042;-76
2023/02/26 09:03:01;;;;;;;0.28;0.00;;;2.70;99.90;;;;;;5014892;28;20026;-76
2023/02/26 09:05:27;;;;;;;3.00;0.00;;;2.80;99.90;;;;;;5013704;28;20512;-76
2023/02/26 09:07:52;;;;;;;2.83;0.20;;;2.80;99.90;;;;;;5015592;28;20022;-76
2023/02/26 09:10:18;;;;;;;1.05;0.00;;;2.90;99.90;;;;;;5014957;28;20034;-76
2023/02/26 09:12:45;;;;;;;1.55;0.00;;;3.00;99.90;;;;;;5014000;28;20030;-76
2023/02/26 09:15:12;;;;;;;0.30;0.00;;;3.00;99.90;;;;;;5015492;28;20026;-76
2023/02/26 09:17:38;;;;;;;0.20;0.00;;;3.10;99.90;;;;;;5014985;28;20022;-75
2023/02/26 09:20:05;;;;;;;4.22;0.20;;;3.20;99.90;;;;;;5013500;28;20088;-75
2023/02/26 09:22:30;;;;;;;0.00;0.00;;;3.20;99.90;;;;;;5015033;28;20072;-76
2023/02/26 09:24:56;;;;;;;0.43;0.22;;;3.30;99.90;;;;;;5013559;28;20022;-76
2023/02/26 09:27:22;;;;;;;4.10;0.00;;;3.40;99.90;;;;;;5015463;28;20028;-76
2023/02/26 09:29:47;;;;;;;0.10;0.00;;;3.60;99.90;;;;;;5014620;28;20026;-76
2023/02/26 09:32:13;;;;;;;2.33;0.00;;;3.40;99.90;;;;;;5015082;28;20125;-76
2023/02/26 09:34:39;;;;;;;0.10;0.00;;;3.40;99.90;;;;;;5014401;28;20037;-76
2023/02/26 09:37:06;;;;;;;3.10;0.00;;;3.50;99.90;;;;;;5014308;28;20025;-76
2023/02/26 09:39:33;;;;;;;0.32;0.00;;;3.50;99.90;;;;;;5014592;28;20526;-76
2023/02/26 09:42:23;;;;;;;2.35;0.20;;;3.60;99.90;;;;;;5013574;28;20026;-76
2023/02/26 09:44:50;;;;;;;1.85;0.03;;;3.70;99.90;;;;;;4994491;28;20180;-75
2023/02/26 09:47:18;;;;;;;2.35;0.00;;;3.80;99.90;;;;;;5014533;28;20029;-76
2023/02/26 09:49:52;;;;;;;0.55;0.00;;;3.90;99.90;;;;;;5013220;28;20030;-76
2023/02/26 09:52:21;;;;;;;0.20;0.00;;;4.00;99.90;;;;;;5013235;28;20131;-76
2023/02/26 09:54:51;;;;;;;1.55;0.00;;;4.10;99.90;;;;;;5013770;28;20495;-76
2023/02/26 09:57:35;;;;;;;0.10;0.00;;;4.20;99.80;;;;;;5013176;28;20080;-75
2023/02/26 10:00:03;;;;;;;1.92;0.00;;;4.30;99.40;;;;;;5012640;28;20022;-76
2023/02/26 10:02:49;;;;;;;3.20;0.10;;;4.40;99.50;;;;;;5013893;28;20026;-75
2023/02/26 10:06:04;;;;;;;3.17;0.00;;;4.40;98.90;;;;;;5012434;28;20030;-76
2023/02/26 10:08:37;;;;;;;2.35;0.00;;;4.50;99.20;;;;;;5010631;28;20044;-76
2023/02/26 10:11:16;;;;;;;4.43;0.00;;;4.50;98.00;;;;;;5012345;28;20034;-76
2023/02/26 10:13:51;;;;;;;3.50;0.00;;;4.50;98.50;;;;;;5012259;28;20053;-76
2023/02/26 10:16:22;;;;;;;3.97;0.00;;;4.60;97.40;;;;;;5013604;28;20482;-76
2023/02/26 10:19:03;;;;;;;2.30;0.32;;;4.60;97.50;;;;;;5013428;28;20025;-75
2023/02/26 10:21:35;;;;;;;3.92;0.00;;;4.60;97.60;;;;;;5013840;28;20029;-75
2023/02/26 10:24:25;;;;;;;0.45;0.10;;;4.60;97.20;;;;;;5012210;28;20473;-75
2023/02/26 10:26:57;;;;;;;1.55;0.10;;;4.70;96.70;;;;;;5013103;28;20080;-76
2023/02/26 10:29:31;;;;;;;0.10;0.00;;;4.70;96.70;;;;;;5013474;28;20037;-75
2023/02/26 10:32:16;;;;;;;0.20;0.00;;;4.70;96.30;;;;;;5013863;28;20034;-76
2023/02/26 10:34:53;;;;;;;2.08;0.00;;;4.60;97.10;;;;;;5013360;28;20026;-76
2023/02/26 10:37:31;;;;;;;1.85;0.22;;;4.70;96.40;;;;;;5013804;28;20022;-76
2023/02/26 10:40:15;;;;;;;1.77;0.00;;;4.70;96.90;;;;;;5013210;28;20032;-76
2023/02/26 10:42:43;;;;;;;2.03;0.00;;;4.70;97.10;;;;;;5013628;28;20105;-76
2023/02/26 10:45:38;;;;;;;1.98;0.00;;;4.80;97.70;;;;;;5013881;28;20026;-76
2023/02/26 10:48:51;;;;;;;1.73;0.00;;;5.00;98.20;;;;;;5014980;28;20064;-76
2023/02/26 10:51:24;;;;;;;1.45;0.00;;;5.20;96.90;;;;;;5015473;28;20018;-76
2023/02/26 10:53:55;;;;;;;0.05;0.00;;;5.30;95.60;;;;;;5015648;28;20432;-76
2023/02/26 10:56:29;;;;;;;0.65;0.00;;;5.40;95.50;;;;;;5016725;28;20045;-76
2023/02/26 10:58:54;;;;;;;2.80;0.00;;;5.50;95.70;;;;;;5015509;28;20054;-76
2023/02/26 11:01:22;;;;;;;2.10;0.00;;;5.50;95.30;;;;;;5016420;28;20520;-76
2023/02/26 11:03:54;;;;;;;3.53;0.00;;;5.60;95.10;;;;;;5016906;28;20021;-76
2023/02/26 11:06:28;;;;;;;1.55;0.00;;;5.60;95.60;;;;;;5017146;28;20018;-76
2023/02/26 11:08:56;;;;;;;1.73;0.00;;;5.80;96.30;;;;;;5015145;28;20093;-76
2023/02/26 11:11:57;;;;;;;0.98;0.00;;;6.00;95.60;;;;;;5016312;28;20048;-76
2023/02/26 11:14:24;;;;;;;0.57;0.08;;;5.90;95.20;;;;;;4994368;28;20042;-76
2023/02/26 11:16:54;;;;;;;1.20;0.00;;;6.00;95.10;;;;;;5014994;28;20083;-75
2023/02/26 11:19:27;;;;;;;1.73;0.47;;;6.10;95.10;;;;;;5014866;28;20030;-75
2023/02/26 11:21:53;;;;;;;2.22;0.30;;;6.20;94.30;;;;;;5016351;28;20014;-75
2023/02/26 11:24:28;;;;;;;3.83;0.00;;;6.20;93.80;;;;;;5016105;28;20030;-76
2023/02/26 11:26:56;;;;;;;0.10;0.00;;;6.20;93.80;;;;;;5014802;28;20022;-75
2023/02/26 11:29:24;;;;;;;1.17;0.00;;;6.20;94.80;;;;;;5015118;28;20022;-75
2023/02/26 11:31:54;;;;;;;0.50;0.10;;;6.20;93.30;;;;;;5015976;28;20080;-75
2023/02/26 11:34:24;;;;;;;1.90;0.00;;;6.30;93.50;;;;;;5014829;28;20269;-75
2023/02/26 11:36:56;;;;;;;1.13;0.00;;;6.50;94.50;;;;;;5015761;28;20120;-75
2023/02/26 11:39:24;;;;;;;1.48;0.00;;;6.70;93.60;;;;;;5015938;28;20114;-75
2023/02/26 11:41:54;;;;;;;0.57;0.15;;;6.80;93.30;;;;;;5015731;28;20397;-75
2023/02/26 11:44:44;;;;;;;0.25;0.00;;;6.90;92.50;;;;;;5014406;28;20022;-75
2023/02/26 11:47:16;;;;;;;0.65;0.00;;;6.90;92.50;;;;;;5015730;28;20021;-75
2023/02/26 11:49:51;;;;;;;2.50;0.20;;;7.00;91.10;;;;;;5014413;28;20489;-75
2023/02/26 11:52:19;;;;;;;1.02;0.00;;;7.10;92.10;;;;;;5015926;28;20109;-76
2023/02/26 11:54:47;;;;;;;1.27;0.00;;;7.30;90.50;;;;;;5015875;28;20481;-75
2023/02/26 11:57:21;;;;;;;1.50;0.00;;;7.20;89.00;;;;;;5015513;28;20026;-75
2023/02/26 11:59:50;;;;;;;0.75;0.10;;;7.30;90.40;;;;;;5014695;28;20084;-75
2023/02/26 12:02:22;;;;;;;0.77;0.00;;;7.30;90.40;;;;;;5016045;28;20057;-75
2023/02/26 12:04:53;;;;;;;0.82;0.00;;;7.50;88.80;;;;;;5015452;28;20026;-75
2023/02/26 12:07:20;;;;;;;0.10;0.00;;;7.50;88.30;;;;;;5015311;28;20535;-75
2023/02/26 12:09:47;;;;;;;0.15;0.00;;;7.60;89.70;;;;;;5015200;28;20030;-75
2023/02/26 12:12:29;;;;;;;1.77;0.00;;;7.70;90.00;;;;;;5013969;28;20030;-75
2023/02/26 12:15:28;;;;;;;1.95;0.00;;;7.80;89.10;;;;;;5015305;28;20036;-75
2023/02/26 12:18:08;;;;;;;0.22;0.00;;;7.90;88.70;;;;;;5015392;28;20034;-75
2023/02/26 12:20:40;;;;;;;2.17;0.00;;;8.10;88.80;;;;;;5015650;28;20472;-75
2023/02/26 12:23:24;;;;;;;1.90;0.00;;;8.20;84.20;;;;;;5015190;28;20474;-75
2023/02/26 12:25:59;;;;;;;1.75;0.00;;;8.20;86.80;;;;;;5013990;28;20030;-75
2023/02/26 12:28:34;;;;;;;2.38;0.52;;;8.30;85.00;;;;;;5015002;28;20022;-75
2023/02/26 12:31:32;;;;;;;1.25;0.10;;;8.20;84.10;;;;;;5015342;28;20037;-75
2023/02/26 12:34:18;;;;;;;0.45;0.00;;;8.20;84.20;;;;;;5015626;28;20426;-75
2023/02/26 12:37:08;;;;;;;0.03;0.00;;;8.20;83.40;;;;;;5014886;28;20076;-75
2023/02/26 12:39:49;;;;;;;2.80;0.63;;;8.30;84.20;;;;;;5015274;28;20132;-75
2023/02/26 12:42:32;;;;;;;0.00;0.00;;;8.40;84.70;;;;;;5014596;28;20026;-75
2023/02/26 12:45:15;;;;;;;0.57;0.15;;;8.50;86.20;;;;;;5015144;28;20121;-75
2023/02/26 12:48:12;;;;;;;2.28;0.00;;;8.70;84.40;;;;;;5015750;28;20022;-75
2023/02/26 12:50:48;;;;;;;0.38;0.00;;;8.90;85.20;;;;;;5012761;28;20121;-75
2023/02/26 12:53:38;;;;;;;0.73;0.00;;;8.90;81.80;;;;;;5013412;28;20030;-75
2023/02/26 12:56:31;;;;;;;2.22;0.00;;;8.90;83.90;;;;;;5014518;28;20033;-75
2023/02/26 12:59:23;;;;;;;0.00;0.00;;;8.90;82.80;;;;;;5014499;28;20480;-75
2023/02/26 13:02:22;;;;;;;0.75;0.00;;;8.80;82.30;;;;;;5013106;28;20366;-75
2023/02/26 13:04:54;;;;;;;0.85;0.00;;;8.70;79.60;;;;;;5013048;28;20392;-75
2023/02/26 13:07:49;;;;;;;1.55;0.32;;;8.80;81.20;;;;;;5013194;28;20022;-75
2023/02/26 13:10:39;;;;;;;0.10;0.03;;;8.90;78.60;;;;;;5012894;28;20476;-75
2023/02/26 13:13:20;;;;;;;0.68;0.00;;;9.00;80.20;;;;;;5014195;28;20161;-76
2023/02/26 13:15:51;;;;;;;1.58;0.00;;;9.20;80.10;;;;;;5012975;28;20018;-76
2023/02/26 13:18:23;;;;;;;0.73;0.00;;;9.30;80.10;;;;;;5012736;28;20168;-76
2023/02/26 13:21:17;;;;;;;2.13;0.10;;;9.40;78.00;;;;;;5014149;28;20022;-76